Time;durP1;ratioP1;P1;durP2;ratioP2;P2;SDS_P1;SDS_P2;PMS_P1;PMS_P2;Temp;Humidity;BMP_temperature;BMP_pressure;BME280_temperature;BME280_humidity;BME280_pressure;Samples;Min_cycle;Max_cycle;Signal;HPM_P1;HPM_P2
2023/12/19 00:01:41;;;;;;;;;;;;;;;;;;5109311;28;20210;-49
2023/12/19 00:04:07;;;;;;;;;;;;;;;;;;5108505;28;19949;-49
2023/12/19 00:06:34;;;;;;;;;;;;;;;;;;5108736;28;19927;-50
2023/12/19 00:09:00;;;;;;;;;;;;;;;;;;5107153;28;19924;-49
2023/12/19 00:11:26;;;;;;;;;;;;;;;;;;5108338;28;19957;-51
2023/12/19 00:13:52;;;;;;;;;;;;;;;;;;5108401;28;19924;-51
2023/12/19 00:16:18;;;;;;;;;;;;;;;;;;5107487;28;19927;-50
2023/12/19 00:18:44;;;;;;;;;;;;;;;;;;5108408;28;19975;-48
2023/12/19 00:21:11;;;;;;;;;;;;;;;;;;5108640;28;19956;-48
2023/12/19 00:23:37;;;;;;;;;;;;;;;;;;5108571;28;20115;-50
2023/12/19 00:26:05;;;;;;;;;;;;;;;;;;5108268;28;19939;-51
2023/12/19 00:28:31;;;;;;;;;;;;;;;;;;5107707;28;19928;-51
2023/12/19 00:30:57;;;;;;;;;;;;;;;;;;5108623;28;19924;-51
2023/12/19 00:33:24;;;;;;;;;;;;;;;;;;5108280;28;19931;-51
2023/12/19 00:35:50;;;;;;;;;;;;;;;;;;5107027;28;19976;-50
2023/12/19 00:38:16;;;;;;;;;;;;;;;;;;5107603;28;19980;-50
2023/12/19 00:40:42;;;;;;;;;;;;;;;;;;5108026;28;19970;-50
2023/12/19 00:43:09;;;;;;;;;;;;;;;;;;5108062;28;19971;-50
2023/12/19 00:45:35;;;;;;;;;;;;;;;;;;5106978;28;19931;-50
2023/12/19 00:48:01;;;;;;;;;;;;;;;;;;5107890;28;19923;-50
2023/12/19 00:50:28;;;;;;;;;;;;;;;;;;5107800;28;19928;-50
2023/12/19 00:52:54;;;;;;;;;;;;;;;;;;5108348;28;19962;-50
2023/12/19 00:55:20;;;;;;;;;;;;;;;;;;5107212;28;19955;-50
2023/12/19 00:57:46;;;;;;;;;;;;;;;;;;5107246;28;19924;-51
2023/12/19 01:00:12;;;;;;;;;;;;;;;;;;5107841;28;19924;-50
2023/12/19 01:02:38;;;;;;;;;;;;;;;;;;5108075;28;20364;-48
2023/12/19 01:05:04;;;;;;;;;;;;;;;;;;5107431;27;20014;-49
2023/12/19 01:07:31;;;;;;;;;;;;;;;;;;5107616;28;20020;-50
2023/12/19 01:09:57;;;;;;;;;;;;;;;;;;5107616;28;19973;-51
2023/12/19 01:12:23;;;;;;;;;;;;;;;;;;5107815;28;19938;-50
2023/12/19 01:14:49;;;;;;;;;;;;;;;;;;5106264;28;20335;-51
2023/12/19 01:17:15;;;;;;;;;;;;;;;;;;5106544;28;19996;-51
2023/12/19 01:19:42;;;;;;;;;;;;;;;;;;5107089;28;20202;-50
2023/12/19 01:22:08;;;;;;;;;;;;;;;;;;5106682;28;19923;-50
2023/12/19 01:24:34;;;;;;;;;;;;;;;;;;5107347;28;20413;-49
2023/12/19 01:27:00;;;;;;;;;;;;;;;;;;5106977;28;19936;-50
2023/12/19 01:29:26;;;;;;;;;;;;;;;;;;5107443;28;19960;-50
2023/12/19 01:31:53;;;;;;;;;;;;;;;;;;5107630;28;19928;-52
2023/12/19 01:34:19;;;;;;;;;;;;;;;;;;5106886;28;20359;-50
2023/12/19 01:36:46;;;;;;;;;;;;;;;;;;5107043;28;19928;-50
2023/12/19 01:39:21;;;;;;;;;;;;;;;;;;5106687;28;19967;-50
2023/12/19 01:41:48;;;;;;;;;;;;;;;;;;5107766;28;19928;-50
2023/12/19 01:44:14;;;;;;;;;;;;;;;;;;5106794;28;19931;-50
2023/12/19 01:46:40;;;;;;;;;;;;;;;;;;5106786;28;19924;-48
2023/12/19 01:49:06;;;;;;;;;;;;;;;;;;5104114;28;19931;-50
2023/12/19 01:51:32;;;;;;;;;;;;;;;;;;5107666;28;20445;-51
2023/12/19 01:54:00;;;;;;;;;;;;;;;;;;5106951;28;20391;-51
2023/12/19 01:56:26;;;;;;;;;;;;;;;;;;5106241;28;20479;-51
2023/12/19 01:58:52;;;;;;;;;;;;;;;;;;5106545;28;20346;-50
2023/12/19 02:01:18;;;;;;;;;;;;;;;;;;5107138;28;20016;-51
2023/12/19 02:03:44;;;;;;;;;;;;;;;;;;5106929;28;19932;-50
2023/12/19 02:06:11;;;;;;;;;;;;;;;;;;5106566;28;20343;-50
2023/12/19 02:08:37;;;;;;;;;;;;;;;;;;5106683;28;20353;-51
2023/12/19 02:11:03;;;;;;;;;;;;;;;;;;5107122;28;19923;-51
2023/12/19 02:13:29;;;;;;;;;;;;;;;;;;5106853;28;19975;-50
2023/12/19 02:15:55;;;;;;;;;;;;;;;;;;5104976;28;19972;-48
2023/12/19 02:18:21;;;;;;;;;;;;;;;;;;5106088;28;19924;-50
2023/12/19 02:20:48;;;;;;;;;;;;;;;;;;5106783;28;19932;-50
2023/12/19 02:23:14;;;;;;;;;;;;;;;;;;5106915;28;19935;-50
2023/12/19 02:25:40;;;;;;;;;;;;;;;;;;5105569;28;19928;-49
2023/12/19 02:28:06;;;;;;;;;;;;;;;;;;5106246;28;19986;-49
2023/12/19 02:30:34;;;;;;;;;;;;;;;;;;5107007;28;19932;-51
2023/12/19 02:33:01;;;;;;;;;;;;;;;;;;5108989;28;19943;-50
2023/12/19 02:35:27;;;;;;;;;;;;;;;;;;5110122;28;19928;-49
2023/12/19 02:37:53;;;;;;;;;;;;;;;;;;5110101;28;19950;-51
2023/12/19 02:40:19;;;;;;;;;;;;;;;;;;5110478;28;19930;-51
2023/12/19 02:42:45;;;;;;;;;;;;;;;;;;5110622;28;19931;-50
2023/12/19 02:45:12;;;;;;;;;;;;;;;;;;5108937;28;19955;-49
2023/12/19 02:47:38;;;;;;;;;;;;;;;;;;5109647;28;20375;-50
2023/12/19 02:50:04;;;;;;;;;;;;;;;;;;5110425;28;19934;-50
2023/12/19 02:52:31;;;;;;;;;;;;;;;;;;5110404;27;19924;-50
2023/12/19 02:54:57;;;;;;;;;;;;;;;;;;5109853;28;20184;-51
2023/12/19 02:57:23;;;;;;;;;;;;;;;;;;5108734;28;19967;-47
2023/12/19 02:59:49;;;;;;;;;;;;;;;;;;5110026;27;19941;-51
2023/12/19 03:02:15;;;;;;;;;;;;;;;;;;5110731;27;19977;-51
2023/12/19 03:04:41;;;;;;;;;;;;;;;;;;5110047;28;19955;-50
2023/12/19 03:07:08;;;;;;;;;;;;;;;;;;5110031;28;19927;-50
2023/12/19 03:09:34;;;;;;;;;;;;;;;;;;5109048;28;20378;-52
2023/12/19 03:12:03;;;;;;;;;;;;;;;;;;5110048;28;19931;-51
2023/12/19 03:14:29;;;;;;;;;;;;;;;;;;5109173;28;20318;-50
2023/12/19 03:16:55;;;;;;;;;;;;;;;;;;5109013;28;19955;-50
2023/12/19 03:19:21;;;;;;;;;;;;;;;;;;5109308;28;20276;-50
2023/12/19 03:21:47;;;;;;;;;;;;;;;;;;5109753;28;20384;-49
2023/12/19 03:24:14;;;;;;;;;;;;;;;;;;5109603;28;19932;-51
2023/12/19 03:26:40;;;;;;;;;;;;;;;;;;5109134;28;19924;-48
2023/12/19 03:29:06;;;;;;;;;;;;;;;;;;5109278;28;19997;-51
2023/12/19 03:31:32;;;;;;;;;;;;;;;;;;5110435;28;19964;-50
2023/12/19 03:33:58;;;;;;;;;;;;;;;;;;5109789;28;19923;-50
2023/12/19 03:36:24;;;;;;;;;;;;;;;;;;5109094;28;20023;-51
2023/12/19 03:38:51;;;;;;;;;;;;;;;;;;5108958;28;20377;-50
2023/12/19 03:41:17;;;;;;;;;;;;;;;;;;5109429;28;19931;-50
2023/12/19 03:43:43;;;;;;;;;;;;;;;;;;5108763;28;19973;-51
2023/12/19 03:46:10;;;;;;;;;;;;;;;;;;5108199;28;19947;-51
2023/12/19 03:48:36;;;;;;;;;;;;;;;;;;5108355;28;20417;-51
2023/12/19 03:51:02;;;;;;;;;;;;;;;;;;5109206;27;20287;-50
2023/12/19 03:53:29;;;;;;;;;;;;;;;;;;5109384;28;20329;-49
2023/12/19 03:55:55;;;;;;;;;;;;;;;;;;5107099;28;19931;-51
2023/12/19 03:58:21;;;;;;;;;;;;;;;;;;5108522;28;19931;-51
2023/12/19 04:00:48;;;;;;;;;;;;;;;;;;5108681;28;19951;-50
2023/12/19 04:03:14;;;;;;;;;;;;;;;;;;5109451;28;20314;-51
2023/12/19 04:05:40;;;;;;;;;;;;;;;;;;5108750;28;19989;-51
2023/12/19 04:08:06;;;;;;;;;;;;;;;;;;5108531;28;19928;-50
2023/12/19 04:10:32;;;;;;;;;;;;;;;;;;5108636;28;20355;-51
2023/12/19 04:12:59;;;;;;;;;;;;;;;;;;5109234;28;19930;-48
2023/12/19 04:15:25;;;;;;;;;;;;;;;;;;5107774;28;19958;-51
2023/12/19 04:17:52;;;;;;;;;;;;;;;;;;5108536;28;19924;-51
2023/12/19 04:20:18;;;;;;;;;;;;;;;;;;5108650;28;20367;-50
2023/12/19 04:22:44;;;;;;;;;;;;;;;;;;5108660;28;20299;-51
2023/12/19 04:25:11;;;;;;;;;;;;;;;;;;5108452;28;19938;-50
2023/12/19 04:27:37;;;;;;;;;;;;;;;;;;5108866;28;19988;-51
2023/12/19 04:30:03;;;;;;;;;;;;;;;;;;5108335;28;19939;-50
2023/12/19 04:32:29;;;;;;;;;;;;;;;;;;5108768;28;19935;-49
2023/12/19 04:34:55;;;;;;;;;;;;;;;;;;5105877;28;19935;-49
2023/12/19 04:37:22;;;;;;;;;;;;;;;;;;5108474;28;19975;-49
2023/12/19 04:39:48;;;;;;;;;;;;;;;;;;5107811;28;19959;-51
2023/12/19 04:42:17;;;;;;;;;;;;;;;;;;5108632;28;19931;-50
2023/12/19 04:44:44;;;;;;;;;;;;;;;;;;5107521;28;19950;-51
2023/12/19 04:47:10;;;;;;;;;;;;;;;;;;5108183;28;19924;-50
2023/12/19 04:49:36;;;;;;;;;;;;;;;;;;5107375;28;19928;-50
2023/12/19 04:52:02;;;;;;;;;;;;;;;;;;5108202;28;20488;-51
2023/12/19 04:54:29;;;;;;;;;;;;;;;;;;5107982;28;20006;-49
2023/12/19 04:56:55;;;;;;;;;;;;;;;;;;5106988;28;20178;-50
2023/12/19 04:59:21;;;;;;;;;;;;;;;;;;5107358;28;19967;-51
2023/12/19 05:01:47;;;;;;;;;;;;;;;;;;5107910;28;19931;-48
2023/12/19 05:04:13;;;;;;;;;;;;;;;;;;5107657;28;19924;-50
2023/12/19 05:06:39;;;;;;;;;;;;;;;;;;5107517;28;20276;-51
2023/12/19 05:09:06;;;;;;;;;;;;;;;;;;5107101;28;19923;-50
2023/12/19 05:11:32;;;;;;;;;;;;;;;;;;5108019;28;19976;-49
2023/12/19 05:13:58;;;;;;;;;;;;;;;;;;5107389;28;20325;-51
2023/12/19 05:16:24;;;;;;;;;;;;;;;;;;5107301;28;20348;-51
2023/12/19 05:18:50;;;;;;;;;;;;;;;;;;5106934;27;20423;-51
2023/12/19 05:21:20;;;;;;;;;;;;;;;;;;5107099;28;20015;-50
2023/12/19 05:23:47;;;;;;;;;;;;;;;;;;5107388;28;19927;-50
2023/12/19 05:26:13;;;;;;;;;;;;;;;;;;5107342;28;19957;-50
2023/12/19 05:28:39;;;;;;;;;;;;;;;;;;5106819;28;19976;-46
2023/12/19 05:31:05;;;;;;;;;;;;;;;;;;5107526;28;19963;-49
2023/12/19 05:33:31;;;;;;;;;;;;;;;;;;5107283;28;19930;-49
2023/12/19 05:35:58;;;;;;;;;;;;;;;;;;5107009;28;20027;-49
2023/12/19 05:38:24;;;;;;;;;;;;;;;;;;5106712;28;19980;-48
2023/12/19 05:40:56;;;;;;;;;;;;;;;;;;5106958;28;20351;-46
2023/12/19 05:43:22;;;;;;;;;;;;;;;;;;5107139;28;19973;-48
2023/12/19 05:45:48;;;;;;;;;;;;;;;;;;5106840;28;19970;-50
2023/12/19 05:48:14;;;;;;;;;;;;;;;;;;5107037;28;19984;-47
2023/12/19 05:50:42;;;;;;;;;;;;;;;;;;5106307;28;21320;-47
2023/12/19 05:53:09;;;;;;;;;;;;;;;;;;5105459;28;19987;-48
2023/12/19 05:55:35;;;;;;;;;;;;;;;;;;5106381;28;19932;-46
2023/12/19 05:58:01;;;;;;;;;;;;;;;;;;5106748;28;19924;-48
2023/12/19 06:00:28;;;;;;;;;;;;;;;;;;5106337;28;19927;-46
2023/12/19 06:02:54;;;;;;;;;;;;;;;;;;5100120;28;20390;-45
2023/12/19 06:05:20;;;;;;;;;;;;;;;;;;5103287;28;21246;-47
2023/12/19 06:07:46;;;;;;;;;;;;;;;;;;5105486;28;20015;-49
2023/12/19 06:10:12;;;;;;;;;;;;;;;;;;5109506;28;19931;-46
2023/12/19 06:12:39;;;;;;;;;;;;;;;;;;5110346;28;19997;-50
2023/12/19 06:15:08;;;;;;;;;;;;;;;;;;5109562;28;19984;-46
2023/12/19 06:17:34;;;;;;;;;;;;;;;;;;5109683;28;19924;-47
2023/12/19 06:20:00;;;;;;;;;;;;;;;;;;5109628;28;19924;-46
2023/12/19 06:22:27;;;;;;;;;;;;;;;;;;5109790;28;20043;-47
2023/12/19 06:24:53;;;;;;;;;;;;;;;;;;5110142;28;19924;-49
2023/12/19 06:27:20;;;;;;;;;;;;;;;;;;5109304;28;20388;-45
2023/12/19 06:29:46;;;;;;;;;;;;;;;;;;5105517;28;20342;-51
2023/12/19 06:32:12;;;;;;;;;;;;;;;;;;5101125;28;20353;-49
2023/12/19 06:34:38;;;;;;;;;;;;;;;;;;5095364;27;20373;-53
2023/12/19 06:37:05;;;;;;;;;;;;;;;;;;5105030;28;20827;-49
2023/12/19 06:39:31;;;;;;;;;;;;;;;;;;5104769;28;20239;-50
2023/12/19 06:41:57;;;;;;;;;;;;;;;;;;5105429;27;19927;-51
2023/12/19 06:44:23;;;;;;;;;;;;;;;;;;5109210;28;19974;-51
2023/12/19 06:46:49;;;;;;;;;;;;;;;;;;5106539;28;20280;-51
2023/12/19 06:49:16;;;;;;;;;;;;;;;;;;5102822;27;19928;-51
2023/12/19 06:51:42;;;;;;;;;;;;;;;;;;5093681;27;19928;-50
2023/12/19 06:54:09;;;;;;;;;;;;;;;;;;5099121;27;19924;-47
2023/12/19 06:56:35;;;;;;;;;;;;;;;;;;5098212;27;19984;-50
2023/12/19 06:59:01;;;;;;;;;;;;;;;;;;5095590;28;19928;-51
2023/12/19 07:01:28;;;;;;;;;;;;;;;;;;5096705;28;19972;-48
2023/12/19 07:03:54;;;;;;;;;;;;;;;;;;5098667;28;19967;-48
2023/12/19 07:06:21;;;;;;;;;;;;;;;;;;5100527;28;19931;-48
2023/12/19 07:08:47;;;;;;;;;;;;;;;;;;5101180;28;20415;-46
2023/12/19 07:11:15;;;;;;;;;;;;;;;;;;5104387;28;19927;-48
2023/12/19 07:13:41;;;;;;;;;;;;;;;;;;5099959;28;19940;-46
2023/12/19 07:16:07;;;;;;;;;;;;;;;;;;5092439;28;19970;-49
2023/12/19 07:18:33;;;;;;;;;;;;;;;;;;5091650;28;20445;-47
2023/12/19 07:20:59;;;;;;;;;;;;;;;;;;5092589;28;20007;-46
2023/12/19 07:23:25;;;;;;;;;;;;;;;;;;5094781;28;20420;-48
2023/12/19 07:25:52;;;;;;;;;;;;;;;;;;5094608;27;20075;-47
2023/12/19 07:28:18;;;;;;;;;;;;;;;;;;5100469;27;19932;-47
2023/12/19 07:30:45;;;;;;;;;;;;;;;;;;5090705;28;19931;-47
2023/12/19 07:33:11;;;;;;;;;;;;;;;;;;5098130;28;20015;-47
2023/12/19 07:35:37;;;;;;;;;;;;;;;;;;5095799;28;20628;-46
2023/12/19 07:38:04;;;;;;;;;;;;;;;;;;5100707;28;19953;-49
2023/12/19 07:40:31;;;;;;;;;;;;;;;;;;5097141;28;20049;-48
2023/12/19 07:42:57;;;;;;;;;;;;;;;;;;5094928;28;19936;-48
2023/12/19 07:45:23;;;;;;;;;;;;;;;;;;5093295;28;19939;-47
2023/12/19 07:47:51;;;;;;;;;;;;;;;;;;5088669;28;20398;-47
2023/12/19 07:50:17;;;;;;;;;;;;;;;;;;5084339;28;19935;-50
2023/12/19 07:52:44;;;;;;;;;;;;;;;;;;5085812;28;20059;-54
2023/12/19 07:55:10;;;;;;;;;;;;;;;;;;5086535;28;19924;-53
2023/12/19 07:57:38;;;;;;;;;;;;;;;;;;5087667;28;19931;-52
2023/12/19 08:00:04;;;;;;;;;;;;;;;;;;5083052;27;19995;-53
2023/12/19 08:02:32;;;;;;;;;;;;;;;;;;5086540;28;19939;-53
2023/12/19 08:04:58;;;;;;;;;;;;;;;;;;5084369;28;19924;-53
2023/12/19 08:07:25;;;;;;;;;;;;;;;;;;5085336;28;20327;-53
2023/12/19 08:09:51;;;;;;;;;;;;;;;;;;5088150;28;19985;-54
2023/12/19 08:12:17;;;;;;;;;;;;;;;;;;5080911;28;21078;-53
2023/12/19 08:14:43;;;;;;;;;;;;;;;;;;5082612;27;19955;-53
2023/12/19 08:17:10;;;;;;;;;;;;;;;;;;5088383;27;19932;-53
2023/12/19 08:19:37;;;;;;;;;;;;;;;;;;5088306;27;19935;-52
2023/12/19 08:22:03;;;;;;;;;;;;;;;;;;5088426;27;20299;-54
2023/12/19 08:24:30;;;;;;;;;;;;;;;;;;5080392;28;19931;-51
2023/12/19 08:26:56;;;;;;;;;;;;;;;;;;5079217;28;19931;-54
2023/12/19 08:29:23;;;;;;;;;;;;;;;;;;5080377;27;20406;-53
2023/12/19 08:31:49;;;;;;;;;;;;;;;;;;5081432;27;19931;-54
2023/12/19 08:34:15;;;;;;;;;;;;;;;;;;5080562;27;20086;-54
2023/12/19 08:36:42;;;;;;;;;;;;;;;;;;5084983;27;20958;-62
2023/12/19 08:39:10;;;;;;;;;;;;;;;;;;5081141;27;19932;-53
2023/12/19 08:41:37;;;;;;;;;;;;;;;;;;5081122;28;20322;-55
2023/12/19 08:44:03;;;;;;;;;;;;;;;;;;5085095;27;19931;-53
2023/12/19 08:46:29;;;;;;;;;;;;;;;;;;5078981;27;19938;-54
2023/12/19 08:48:56;;;;;;;;;;;;;;;;;;5081500;28;19938;-53
2023/12/19 08:51:22;;;;;;;;;;;;;;;;;;5084565;27;20351;-53
2023/12/19 08:53:48;;;;;;;;;;;;;;;;;;5075100;27;19970;-54
2023/12/19 08:56:14;;;;;;;;;;;;;;;;;;5082617;28;19928;-54
2023/12/19 08:58:43;;;;;;;;;;;;;;;;;;5081878;28;19928;-53
2023/12/19 09:01:09;;;;;;;;;;;;;;;;;;5081219;27;20012;-54
2023/12/19 09:03:37;;;;;;;;;;;;;;;;;;5078333;27;19931;-53
2023/12/19 09:06:03;;;;;;;;;;;;;;;;;;5080016;28;20416;-55
2023/12/19 09:08:29;;;;;;;;;;;;;;;;;;5079101;27;19992;-55
2023/12/19 09:10:56;;;;;;;;;;;;;;;;;;5076904;28;20317;-56
2023/12/19 09:13:22;;;;;;;;;;;;;;;;;;5085304;28;19959;-55
2023/12/19 09:15:49;;;;;;;;;;;;;;;;;;5079402;28;19932;-55
2023/12/19 09:18:16;;;;;;;;;;;;;;;;;;5084179;28;20028;-55
2023/12/19 09:20:42;;;;;;;;;;;;;;;;;;5094330;28;19991;-55
2023/12/19 09:23:08;;;;;;;;;;;;;;;;;;5090487;28;19971;-55
2023/12/19 09:25:34;;;;;;;;;;;;;;;;;;5094401;28;19975;-55
2023/12/19 09:28:00;;;;;;;;;;;;;;;;;;5092284;28;19932;-55
2023/12/19 09:30:27;;;;;;;;;;;;;;;;;;5090732;28;19924;-56
2023/12/19 09:32:53;;;;;;;;;;;;;;;;;;5087263;28;20445;-56
2023/12/19 09:35:19;;;;;;;;;;;;;;;;;;5091057;28;20009;-55
2023/12/19 09:37:46;;;;;;;;;;;;;;;;;;5082930;28;19932;-55
2023/12/19 09:40:13;;;;;;;;;;;;;;;;;;5080828;28;20450;-55
2023/12/19 09:42:39;;;;;;;;;;;;;;;;;;5077294;28;21383;-55
2023/12/19 09:45:06;;;;;;;;;;;;;;;;;;5079496;28;20018;-55
2023/12/19 09:47:33;;;;;;;;;;;;;;;;;;5073983;28;19931;-55
2023/12/19 09:49:59;;;;;;;;;;;;;;;;;;5081378;28;19928;-56
2023/12/19 09:52:25;;;;;;;;;;;;;;;;;;5082077;28;20191;-55
2023/12/19 09:54:51;;;;;;;;;;;;;;;;;;5080955;28;19938;-55
2023/12/19 09:57:18;;;;;;;;;;;;;;;;;;5065244;28;19938;-55
2023/12/19 09:59:44;;;;;;;;;;;;;;;;;;5075800;28;19938;-55
2023/12/19 10:02:17;;;;;;;;;;;;;;;;;;5071435;28;20414;-54
2023/12/19 10:04:44;;;;;;;;;;;;;;;;;;5083549;28;19936;-56
2023/12/19 10:07:10;;;;;;;;;;;;;;;;;;5079022;28;19931;-55
2023/12/19 10:09:36;;;;;;;;;;;;;;;;;;5071434;28;20694;-55
2023/12/19 10:12:03;;;;;;;;;;;;;;;;;;5073061;28;20505;-55
2023/12/19 10:14:29;;;;;;;;;;;;;;;;;;5074882;28;19939;-55
2023/12/19 10:16:55;;;;;;;;;;;;;;;;;;5075262;28;19931;-55
2023/12/19 10:19:22;;;;;;;;;;;;;;;;;;5073164;28;19932;-55
2023/12/19 10:21:49;;;;;;;;;;;;;;;;;;5070447;28;19939;-55
2023/12/19 10:24:15;;;;;;;;;;;;;;;;;;5072599;28;19942;-55
2023/12/19 10:26:41;;;;;;;;;;;;;;;;;;5072701;28;21512;-55
2023/12/19 10:29:07;;;;;;;;;;;;;;;;;;5067069;28;20394;-55
2023/12/19 10:31:34;;;;;;;;;;;;;;;;;;5067015;28;19928;-56
2023/12/19 10:34:01;;;;;;;;;;;;;;;;;;5072606;28;19946;-55
2023/12/19 10:36:27;;;;;;;;;;;;;;;;;;5084171;28;20006;-55
2023/12/19 10:38:53;;;;;;;;;;;;;;;;;;5079919;28;19939;-55
2023/12/19 10:41:20;;;;;;;;;;;;;;;;;;5081051;28;20265;-55
2023/12/19 10:43:46;;;;;;;;;;;;;;;;;;5072960;28;19938;-55
2023/12/19 10:46:15;;;;;;;;;;;;;;;;;;5083495;28;20058;-55
2023/12/19 10:48:41;;;;;;;;;;;;;;;;;;5082617;28;19975;-55
2023/12/19 10:51:08;;;;;;;;;;;;;;;;;;5079862;28;20647;-56
2023/12/19 10:53:34;;;;;;;;;;;;;;;;;;5090334;28;20399;-55
2023/12/19 10:56:00;;;;;;;;;;;;;;;;;;5089177;28;20098;-55
2023/12/19 10:58:26;;;;;;;;;;;;;;;;;;5089766;28;19971;-55
2023/12/19 11:00:52;;;;;;;;;;;;;;;;;;5081949;28;19936;-56
2023/12/19 11:03:19;;;;;;;;;;;;;;;;;;5090126;28;20373;-55
2023/12/19 11:05:46;;;;;;;;;;;;;;;;;;5092414;28;19924;-55
2023/12/19 11:08:13;;;;;;;;;;;;;;;;;;5091888;28;20183;-55
2023/12/19 11:10:40;;;;;;;;;;;;;;;;;;5096915;28;20634;-55
2023/12/19 11:13:06;;;;;;;;;;;;;;;;;;5029795;28;19933;-55
2023/12/19 11:15:33;;;;;;;;;;;;;;;;;;5023409;28;20514;-55
2023/12/19 11:17:59;;;;;;;;;;;;;;;;;;5020745;28;20395;-55
2023/12/19 11:20:25;;;;;;;;;;;;;;;;;;5020254;28;20491;-55
2023/12/19 11:22:54;;;;;;;;;;;;;;;;;;5022730;28;20345;-55
2023/12/19 11:25:21;;;;;;;;;;;;;;;;;;5020644;28;19968;-55
2023/12/19 11:27:51;;;;;;;;;;;;;;;;;;5023154;28;19933;-55
2023/12/19 11:30:17;;;;;;;;;;;;;;;;;;5025124;27;20968;-55
2023/12/19 11:32:44;;;;;;;;;;;;;;;;;;5081060;28;19932;-55
2023/12/19 11:35:10;;;;;;;;;;;;;;;;;;5079761;27;19984;-56
2023/12/19 11:37:36;;;;;;;;;;;;;;;;;;5084310;28;20152;-55
2023/12/19 11:40:03;;;;;;;;;;;;;;;;;;5093013;27;19931;-56
2023/12/19 11:42:29;;;;;;;;;;;;;;;;;;5093452;28;20046;-55
2023/12/19 11:44:55;;;;;;;;;;;;;;;;;;5090959;28;19957;-55
2023/12/19 11:47:21;;;;;;;;;;;;;;;;;;5084854;28;19936;-55
2023/12/19 11:49:48;;;;;;;;;;;;;;;;;;5088098;27;19928;-55
2023/12/19 11:52:14;;;;;;;;;;;;;;;;;;5085993;27;19961;-55
2023/12/19 11:54:40;;;;;;;;;;;;;;;;;;5076986;28;19934;-55
2023/12/19 11:57:06;;;;;;;;;;;;;;;;;;5084986;27;20384;-55
2023/12/19 11:59:33;;;;;;;;;;;;;;;;;;5085690;28;19932;-56
2023/12/19 12:01:59;;;;;;;;;;;;;;;;;;5083710;27;19989;-56
2023/12/19 12:04:25;;;;;;;;;;;;;;;;;;5081986;28;19932;-56
2023/12/19 12:06:51;;;;;;;;;;;;;;;;;;5076067;28;20018;-55
2023/12/19 12:09:17;;;;;;;;;;;;;;;;;;5082793;27;19931;-55
2023/12/19 12:11:44;;;;;;;;;;;;;;;;;;5075789;28;19972;-55
2023/12/19 12:14:11;;;;;;;;;;;;;;;;;;5077996;28;20000;-55
2023/12/19 12:16:37;;;;;;;;;;;;;;;;;;5078382;27;19936;-55
2023/12/19 12:19:03;;;;;;;;;;;;;;;;;;5080515;27;20535;-56
2023/12/19 12:21:29;;;;;;;;;;;;;;;;;;5038263;28;20521;-55
2023/12/19 12:23:55;;;;;;;;;;;;;;;;;;5039084;28;19943;-55
2023/12/19 12:26:22;;;;;;;;;;;;;;;;;;5039155;28;19970;-55
2023/12/19 12:28:48;;;;;;;;;;;;;;;;;;5033092;28;20408;-56
2023/12/19 12:31:14;;;;;;;;;;;;;;;;;;5038979;28;20121;-55
2023/12/19 12:33:41;;;;;;;;;;;;;;;;;;5038175;28;20471;-55
2023/12/19 12:36:07;;;;;;;;;;;;;;;;;;5029210;28;19932;-55
2023/12/19 12:38:33;;;;;;;;;;;;;;;;;;5037223;28;20456;-56
2023/12/19 12:41:00;;;;;;;;;;;;;;;;;;5078854;28;20402;-55
2023/12/19 12:43:27;;;;;;;;;;;;;;;;;;5080454;28;20439;-61
2023/12/19 12:45:53;;;;;;;;;;;;;;;;;;5088294;28;20710;-59
2023/12/19 12:48:20;;;;;;;;;;;;;;;;;;5087521;28;19939;-60
2023/12/19 12:50:46;;;;;;;;;;;;;;;;;;5081993;27;19931;-55
2023/12/19 12:53:12;;;;;;;;;;;;;;;;;;5089689;28;19973;-54
2023/12/19 12:55:39;;;;;;;;;;;;;;;;;;5087414;28;20477;-54
2023/12/19 12:58:06;;;;;;;;;;;;;;;;;;5092210;27;20051;-54
2023/12/19 13:00:32;;;;;;;;;;;;;;;;;;5095483;28;19923;-54
2023/12/19 13:02:59;;;;;;;;;;;;;;;;;;5090043;27;19938;-54
2023/12/19 13:05:25;;;;;;;;;;;;;;;;;;5092217;28;20555;-55
2023/12/19 13:07:51;;;;;;;;;;;;;;;;;;5091137;28;19963;-54
2023/12/19 13:10:17;;;;;;;;;;;;;;;;;;5095833;28;20295;-54
2023/12/19 13:12:44;;;;;;;;;;;;;;;;;;5087710;28;20056;-54
2023/12/19 13:15:11;;;;;;;;;;;;;;;;;;5093669;28;19940;-55
2023/12/19 13:17:37;;;;;;;;;;;;;;;;;;5094487;28;20340;-55
2023/12/19 13:20:03;;;;;;;;;;;;;;;;;;5097139;28;19928;-55
2023/12/19 13:22:30;;;;;;;;;;;;;;;;;;5096416;28;20030;-55
2023/12/19 13:24:56;;;;;;;;;;;;;;;;;;5092494;28;20558;-55
2023/12/19 13:27:22;;;;;;;;;;;;;;;;;;5093462;28;19935;-55
2023/12/19 13:29:49;;;;;;;;;;;;;;;;;;5094873;28;20333;-55
2023/12/19 13:32:15;;;;;;;;;;;;;;;;;;5093667;28;20064;-55
2023/12/19 13:34:41;;;;;;;;;;;;;;;;;;5097338;28;19927;-55
2023/12/19 13:37:07;;;;;;;;;;;;;;;;;;5099638;28;20411;-56
2023/12/19 13:39:35;;;;;;;;;;;;;;;;;;5096775;27;20393;-56
2023/12/19 13:42:03;;;;;;;;;;;;;;;;;;5101215;28;20612;-54
2023/12/19 13:44:29;;;;;;;;;;;;;;;;;;5100265;28;20005;-54
2023/12/19 13:46:55;;;;;;;;;;;;;;;;;;5103017;28;19924;-55
2023/12/19 13:49:22;;;;;;;;;;;;;;;;;;5102569;28;19923;-54
2023/12/19 13:51:48;;;;;;;;;;;;;;;;;;5100995;28;20022;-55
2023/12/19 13:54:14;;;;;;;;;;;;;;;;;;5102357;28;20239;-54
2023/12/19 13:56:40;;;;;;;;;;;;;;;;;;5099433;28;19992;-54
2023/12/19 13:59:07;;;;;;;;;;;;;;;;;;5100275;28;20031;-54
2023/12/19 14:01:33;;;;;;;;;;;;;;;;;;5100381;28;20031;-54
2023/12/19 14:03:59;;;;;;;;;;;;;;;;;;5100698;28;20264;-54
2023/12/19 14:06:25;;;;;;;;;;;;;;;;;;5098064;28;20585;-53
2023/12/19 14:08:51;;;;;;;;;;;;;;;;;;5096012;28;19932;-54
2023/12/19 14:11:18;;;;;;;;;;;;;;;;;;5097435;28;20330;-54
2023/12/19 14:13:44;;;;;;;;;;;;;;;;;;5099792;28;19931;-54
2023/12/19 14:16:11;;;;;;;;;;;;;;;;;;5094780;28;19973;-54
2023/12/19 14:18:37;;;;;;;;;;;;;;;;;;5102179;28;20299;-52
2023/12/19 14:21:03;;;;;;;;;;;;;;;;;;5094601;28;19936;-54
2023/12/19 14:23:29;;;;;;;;;;;;;;;;;;5099581;28;19935;-53
2023/12/19 14:25:56;;;;;;;;;;;;;;;;;;5097487;28;19964;-54
2023/12/19 14:28:22;;;;;;;;;;;;;;;;;;5100630;28;19986;-53
2023/12/19 14:30:48;;;;;;;;;;;;;;;;;;5106196;27;20379;-52
2023/12/19 14:33:15;;;;;;;;;;;;;;;;;;5108620;27;19931;-54
2023/12/19 14:35:43;;;;;;;;;;;;;;;;;;5104342;27;20048;-54
2023/12/19 14:38:09;;;;;;;;;;;;;;;;;;5105326;27;19974;-53
2023/12/19 14:40:35;;;;;;;;;;;;;;;;;;5101325;27;19963;-54
2023/12/19 14:43:02;;;;;;;;;;;;;;;;;;5100351;28;20008;-54
2023/12/19 14:45:28;;;;;;;;;;;;;;;;;;5099189;27;19931;-54
2023/12/19 14:47:54;;;;;;;;;;;;;;;;;;5101654;27;19955;-54
2023/12/19 14:50:20;;;;;;;;;;;;;;;;;;5099084;27;19987;-53
2023/12/19 14:52:47;;;;;;;;;;;;;;;;;;5099385;28;20327;-54
2023/12/19 14:55:13;;;;;;;;;;;;;;;;;;5103264;28;19966;-53
2023/12/19 14:57:39;;;;;;;;;;;;;;;;;;5104226;27;19923;-53
2023/12/19 15:00:10;;;;;;;;;;;;;;;;;;5104356;28;20161;-54
2023/12/19 15:02:36;;;;;;;;;;;;;;;;;;5105220;28;19923;-52
2023/12/19 15:05:03;;;;;;;;;;;;;;;;;;5105062;28;20419;-54
2023/12/19 15:07:29;;;;;;;;;;;;;;;;;;5105505;28;19928;-54
2023/12/19 15:09:55;;;;;;;;;;;;;;;;;;5104948;27;20364;-54
2023/12/19 15:12:22;;;;;;;;;;;;;;;;;;5106434;28;19931;-54
2023/12/19 15:14:48;;;;;;;;;;;;;;;;;;5105380;28;19932;-52
2023/12/19 15:17:14;;;;;;;;;;;;;;;;;;5105192;28;19924;-53
2023/12/19 15:19:40;;;;;;;;;;;;;;;;;;5106196;28;19949;-51
2023/12/19 15:22:06;;;;;;;;;;;;;;;;;;5104966;28;19963;-52
2023/12/19 15:24:33;;;;;;;;;;;;;;;;;;5105541;28;20018;-54
2023/12/19 15:27:02;;;;;;;;;;;;;;;;;;5105505;28;20494;-52
2023/12/19 15:29:28;;;;;;;;;;;;;;;;;;5105396;28;19928;-53
2023/12/19 15:31:54;;;;;;;;;;;;;;;;;;5105731;28;20452;-51
2023/12/19 15:34:20;;;;;;;;;;;;;;;;;;5105823;28;20147;-53
2023/12/19 15:36:47;;;;;;;;;;;;;;;;;;5105372;28;20009;-52
2023/12/19 15:39:13;;;;;;;;;;;;;;;;;;5104046;28;19936;-52
2023/12/19 15:41:39;;;;;;;;;;;;;;;;;;5102060;28;19976;-53
2023/12/19 15:44:06;;;;;;;;;;;;;;;;;;5105403;28;20606;-54
2023/12/19 15:46:36;;;;;;;;;;;;;;;;;;5105613;28;19924;-54
2023/12/19 15:49:05;;;;;;;;;;;;;;;;;;5105218;28;19927;-53
2023/12/19 15:51:32;;;;;;;;;;;;;;;;;;5104991;28;20018;-53
2023/12/19 15:54:01;;;;;;;;;;;;;;;;;;5104754;28;19932;-53
2023/12/19 15:56:31;;;;;;;;;;;;;;;;;;5104813;28;19927;-53
2023/12/19 15:58:58;;;;;;;;;;;;;;;;;;5105013;28;19976;-53
2023/12/19 16:01:24;;;;;;;;;;;;;;;;;;5104461;28;19924;-51
2023/12/19 16:03:50;;;;;;;;;;;;;;;;;;5104925;27;20291;-53
2023/12/19 16:06:16;;;;;;;;;;;;;;;;;;5104801;28;20401;-53
2023/12/19 16:08:45;;;;;;;;;;;;;;;;;;5104140;28;20428;-52
2023/12/19 16:11:11;;;;;;;;;;;;;;;;;;5104328;28;19924;-53
2023/12/19 16:13:37;;;;;;;;;;;;;;;;;;5105194;28;19971;-52
2023/12/19 16:16:05;;;;;;;;;;;;;;;;;;5104655;28;20012;-53
2023/12/19 16:18:31;;;;;;;;;;;;;;;;;;5104259;28;19924;-52
2023/12/19 16:20:57;;;;;;;;;;;;;;;;;;5104646;28;19924;-51
2023/12/19 16:23:23;;;;;;;;;;;;;;;;;;5105174;28;19959;-51
2023/12/19 16:25:53;;;;;;;;;;;;;;;;;;5104236;28;19936;-53
2023/12/19 16:28:19;;;;;;;;;;;;;;;;;;5104642;28;19927;-53
2023/12/19 16:30:45;;;;;;;;;;;;;;;;;;5104276;28;19931;-53
2023/12/19 16:33:12;;;;;;;;;;;;;;;;;;5108147;28;19939;-53
2023/12/19 16:35:38;;;;;;;;;;;;;;;;;;5107077;28;19980;-53
2023/12/19 16:38:04;;;;;;;;;;;;;;;;;;5107450;28;19930;-52
2023/12/19 16:40:30;;;;;;;;;;;;;;;;;;5107416;28;19967;-52